Time;durP1;ratioP1;P1;durP2;ratioP2;P2;SDS_P1;SDS_P2;PMS_P1;PMS_P2;Temp;Humidity;BMP_temperature;BMP_pressure;BME280_temperature;BME280_humidity;BME280_pressure;Samples;Min_cycle;Max_cycle;Signal;HPM_P1;HPM_P2
2021/09/09 00:01:15;;;;;;;7.13;6.13;;;22.60;99.90;;;;;;5060281;28;20033;-90
2021/09/09 00:03:41;;;;;;;8.30;6.22;;;22.60;99.90;;;;;;5074896;28;20085;-91
2021/09/09 00:06:07;;;;;;;7.68;6.28;;;22.60;99.90;;;;;;5087249;28;20115;-90
2021/09/09 00:08:32;;;;;;;8.30;6.28;;;22.50;99.90;;;;;;5082702;28;20073;-90
2021/09/09 00:10:58;;;;;;;6.93;6.22;;;22.50;99.90;;;;;;5073883;28;20054;-90
2021/09/09 00:13:24;;;;;;;6.70;5.88;;;22.40;99.90;;;;;;5059016;28;20025;-90
2021/09/09 00:15:49;;;;;;;8.13;6.38;;;22.50;99.90;;;;;;5063128;28;20032;-90
2021/09/09 00:18:15;;;;;;;7.13;6.05;;;22.40;99.90;;;;;;5081320;28;20119;-91
2021/09/09 00:20:40;;;;;;;6.97;6.03;;;22.40;99.90;;;;;;5063601;28;20020;-90
2021/09/09 00:23:06;;;;;;;9.75;6.40;;;22.40;99.90;;;;;;5056393;28;20045;-90
2021/09/09 00:25:32;;;;;;;8.55;6.03;;;22.40;99.90;;;;;;5071556;28;20036;-90
2021/09/09 00:27:57;;;;;;;12.23;6.40;;;22.40;99.90;;;;;;5060556;28;20037;-91
2021/09/09 00:30:24;;;;;;;9.60;6.18;;;22.30;99.90;;;;;;5061053;28;20025;-90
2021/09/09 00:32:49;;;;;;;7.57;6.72;;;22.20;99.90;;;;;;5061493;28;20025;-91
2021/09/09 00:35:15;;;;;;;7.80;6.47;;;22.10;99.90;;;;;;5058342;28;20098;-90
2021/09/09 00:37:42;;;;;;;7.32;6.63;;;22.10;99.90;;;;;;5056470;28;20035;-90
2021/09/09 00:40:09;;;;;;;7.20;6.18;;;22.10;99.90;;;;;;5059008;28;20025;-90
2021/09/09 00:42:35;;;;;;;7.13;6.32;;;22.00;99.90;;;;;;5061169;28;20043;-90
2021/09/09 00:45:00;;;;;;;7.97;6.30;;;21.90;99.90;;;;;;5060346;28;20033;-90
2021/09/09 00:47:27;;;;;;;7.05;6.45;;;21.80;99.90;;;;;;5061937;28;20039;-90
2021/09/09 00:49:53;;;;;;;9.18;6.85;;;21.70;99.90;;;;;;5072214;28;20025;-91
2021/09/09 00:52:18;;;;;;;7.97;6.57;;;21.70;99.90;;;;;;5057061;28;20492;-90
2021/09/09 00:54:45;;;;;;;6.93;6.20;;;21.60;99.90;;;;;;5068067;28;20033;-90
2021/09/09 00:57:13;;;;;;;7.72;6.93;;;21.70;99.90;;;;;;5065865;28;20147;-90
2021/09/09 00:59:39;;;;;;;6.97;6.28;;;21.60;99.90;;;;;;5060417;28;20031;-90
2021/09/09 01:02:06;;;;;;;7.50;6.80;;;21.50;99.90;;;;;;5058361;28;20028;-91
2021/09/09 01:04:32;;;;;;;8.48;6.57;;;21.50;99.90;;;;;;5056389;28;20108;-90
2021/09/09 01:06:59;;;;;;;7.30;6.60;;;21.50;99.90;;;;;;5072981;28;20028;-90
2021/09/09 01:09:25;;;;;;;7.10;6.38;;;21.40;99.90;;;;;;5063588;28;20112;-90
2021/09/09 01:11:50;;;;;;;7.30;6.57;;;21.20;99.90;;;;;;5064648;28;20084;-90
2021/09/09 01:14:18;;;;;;;11.02;6.68;;;21.30;99.90;;;;;;5071578;28;20029;-90
2021/09/09 01:16:45;;;;;;;8.43;6.75;;;21.20;99.90;;;;;;5056095;28;20036;-90
2021/09/09 01:19:12;;;;;;;7.60;6.80;;;21.10;99.90;;;;;;5057454;28;20082;-90
2021/09/09 01:21:38;;;;;;;9.27;7.03;;;21.10;99.90;;;;;;5063077;28;20032;-90
2021/09/09 01:24:15;;;;;;;9.52;6.80;;;20.90;99.90;;;;;;5080188;28;20036;-90
2021/09/09 01:27:07;;;;;;;9.05;7.25;;;21.00;99.90;;;;;;5083058;28;20416;-90
2021/09/09 01:29:39;;;;;;;8.07;6.60;;;20.90;99.90;;;;;;5068176;28;20036;-90
2021/09/09 01:32:06;;;;;;;9.88;7.28;;;21.00;99.90;;;;;;5078012;28;20052;-90
2021/09/09 01:34:32;;;;;;;9.45;7.10;;;20.90;99.90;;;;;;5091725;28;20036;-90
2021/09/09 01:36:58;;;;;;;7.43;6.57;;;21.00;99.90;;;;;;5079382;28;20024;-90
2021/09/09 01:39:24;;;;;;;8.23;7.43;;;21.10;99.90;;;;;;5080732;28;20033;-89
2021/09/09 01:41:51;;;;;;;7.53;6.82;;;20.90;99.90;;;;;;5065326;28;20618;-90
2021/09/09 01:44:17;;;;;;;7.85;7.05;;;21.10;99.90;;;;;;5074276;28;20446;-90
2021/09/09 01:46:43;;;;;;;9.23;7.18;;;21.20;99.90;;;;;;5057459;28;20035;-90
2021/09/09 01:49:09;;;;;;;7.55;6.82;;;21.20;99.90;;;;;;5059495;28;20021;-90
2021/09/09 01:51:35;;;;;;;7.95;7.15;;;21.20;99.90;;;;;;5080552;28;20025;-90
2021/09/09 01:54:01;;;;;;;7.45;6.75;;;21.20;99.90;;;;;;5080372;28;20496;-89
2021/09/09 01:56:26;;;;;;;9.07;6.72;;;21.30;99.90;;;;;;5079905;28;20023;-90
2021/09/09 01:58:52;;;;;;;12.27;7.40;;;21.30;99.90;;;;;;5058348;28;20035;-90
2021/09/09 02:01:19;;;;;;;8.68;7.05;;;21.30;99.90;;;;;;5074351;28;20400;-89
2021/09/09 02:03:44;;;;;;;8.05;7.25;;;21.30;99.90;;;;;;5080116;28;20061;-89
2021/09/09 02:06:10;;;;;;;8.27;7.22;;;21.40;99.90;;;;;;5086478;28;20124;-90
2021/09/09 02:08:36;;;;;;;10.85;7.15;;;21.10;99.90;;;;;;5090103;28;20024;-90
2021/09/09 02:11:01;;;;;;;8.30;7.32;;;21.30;99.90;;;;;;5076923;28;20418;-90
2021/09/09 02:13:27;;;;;;;10.13;7.35;;;21.30;99.90;;;;;;5075363;28;20016;-91
2021/09/09 02:15:53;;;;;;;9.50;7.25;;;21.50;99.90;;;;;;5061954;28;20028;-90
2021/09/09 02:18:18;;;;;;;9.90;6.82;;;21.60;99.90;;;;;;5067669;28;20082;-90
2021/09/09 02:20:44;;;;;;;7.50;6.78;;;21.50;99.90;;;;;;5067693;28;20373;-90
2021/09/09 02:23:10;;;;;;;11.13;7.40;;;21.50;99.90;;;;;;5091433;28;20052;-90
2021/09/09 02:25:35;;;;;;;7.93;7.13;;;21.50;99.90;;;;;;5073522;28;20028;-90
2021/09/09 02:28:01;;;;;;;9.82;7.30;;;21.50;99.90;;;;;;5073795;28;20147;-90
2021/09/09 02:30:26;;;;;;;9.45;6.82;;;21.60;99.90;;;;;;5082193;28;20445;-90
2021/09/09 02:32:53;;;;;;;9.98;6.88;;;21.60;99.90;;;;;;5056345;28;20726;-90
2021/09/09 02:35:19;;;;;;;7.80;7.03;;;21.60;99.90;;;;;;5079731;28;20027;-90
2021/09/09 02:37:44;;;;;;;8.05;7.25;;;21.50;99.90;;;;;;5073209;28;20024;-89
2021/09/09 02:40:12;;;;;;;8.90;7.43;;;21.60;99.90;;;;;;5058619;28;20028;-90
2021/09/09 02:42:38;;;;;;;9.85;7.38;;;21.60;99.90;;;;;;5079116;28;20105;-91
2021/09/09 02:45:04;;;;;;;8.60;7.13;;;21.80;99.90;;;;;;5085604;28;20042;-90
2021/09/09 02:47:30;;;;;;;8.10;7.30;;;21.70;99.90;;;;;;5092553;28;20792;-90
2021/09/09 02:49:56;;;;;;;8.80;7.72;;;21.70;99.90;;;;;;5060611;28;20068;-90
2021/09/09 02:52:21;;;;;;;8.63;7.38;;;21.70;99.90;;;;;;5078746;28;20373;-88
2021/09/09 02:54:47;;;;;;;8.48;7.18;;;21.60;99.90;;;;;;5064875;28;20025;-90
2021/09/09 02:57:12;;;;;;;8.05;7.25;;;21.60;99.90;;;;;;5083352;28;20029;-90
2021/09/09 02:59:38;;;;;;;8.40;7.05;;;21.60;99.90;;;;;;5061722;28;20025;-90
2021/09/09 03:02:04;;;;;;;11.00;8.05;;;21.70;99.90;;;;;;5076457;28;20115;-90
2021/09/09 03:04:30;;;;;;;10.60;7.50;;;21.70;99.90;;;;;;5076584;28;20489;-90
2021/09/09 03:06:56;;;;;;;8.00;7.30;;;21.70;99.90;;;;;;5077226;28;20480;-90
2021/09/09 03:09:22;;;;;;;9.10;7.22;;;21.70;99.90;;;;;;5094514;28;20024;-90
2021/09/09 03:11:47;;;;;;;12.02;7.47;;;21.70;99.90;;;;;;5091649;28;20078;-90
2021/09/09 03:14:13;;;;;;;9.90;7.53;;;21.70;99.90;;;;;;5062332;28;20028;-90
2021/09/09 03:16:39;;;;;;;10.77;7.55;;;21.80;99.90;;;;;;5060324;28;20519;-90
2021/09/09 03:19:04;;;;;;;9.02;7.35;;;21.80;99.90;;;;;;5080647;28;20551;-90
2021/09/09 03:21:30;;;;;;;8.75;7.35;;;21.90;99.90;;;;;;5091464;28;20055;-90
2021/09/09 03:23:56;;;;;;;8.07;7.35;;;21.80;99.90;;;;;;5072512;28;20108;-90
2021/09/09 03:26:21;;;;;;;10.70;7.85;;;21.90;99.90;;;;;;5070260;28;20035;-89
2021/09/09 03:28:47;;;;;;;7.97;7.18;;;21.90;99.90;;;;;;5094351;28;20134;-90
2021/09/09 03:31:12;;;;;;;8.35;7.55;;;21.90;99.90;;;;;;5094362;28;20031;-90
2021/09/09 03:33:38;;;;;;;11.70;7.72;;;21.90;99.90;;;;;;5059420;28;20029;-90
2021/09/09 03:36:04;;;;;;;10.32;7.90;;;22.00;99.90;;;;;;5088099;28;20095;-90
2021/09/09 03:38:30;;;;;;;7.80;7.00;;;21.90;99.90;;;;;;5075192;28;20107;-90
2021/09/09 03:40:55;;;;;;;11.05;7.80;;;21.90;99.90;;;;;;5078512;28;20043;-90
2021/09/09 03:43:21;;;;;;;9.18;7.50;;;21.90;99.90;;;;;;5077693;28;20060;-90
2021/09/09 03:45:47;;;;;;;9.27;7.32;;;21.90;99.90;;;;;;5082257;28;20115;-90
2021/09/09 03:48:12;;;;;;;8.27;7.25;;;21.90;99.90;;;;;;5089351;28;20028;-90
2021/09/09 03:50:38;;;;;;;10.68;7.82;;;21.80;99.90;;;;;;5091298;28;20024;-90
2021/09/09 03:53:04;;;;;;;9.75;7.85;;;21.90;99.90;;;;;;5079113;28;20508;-90
2021/09/09 03:55:29;;;;;;;8.68;7.13;;;21.90;99.90;;;;;;5059346;28;20039;-90
2021/09/09 03:57:55;;;;;;;8.93;7.18;;;21.90;99.90;;;;;;5062911;28;20020;-90
2021/09/09 04:00:20;;;;;;;8.15;7.35;;;21.80;99.90;;;;;;5088918;28;20107;-90
2021/09/09 04:02:46;;;;;;;8.18;7.38;;;21.90;99.90;;;;;;5093484;28;20089;-90
2021/09/09 04:05:12;;;;;;;9.45;7.68;;;21.90;99.90;;;;;;5093446;28;20035;-90
2021/09/09 04:07:37;;;;;;;9.23;7.32;;;21.90;99.90;;;;;;5077362;28;20362;-90
2021/09/09 04:10:04;;;;;;;10.25;7.82;;;21.90;99.90;;;;;;5075595;28;20020;-90
2021/09/09 04:12:29;;;;;;;9.68;8.10;;;21.90;99.90;;;;;;5083600;28;20020;-89
2021/09/09 04:14:55;;;;;;;8.25;7.22;;;21.90;99.90;;;;;;5063182;28;20032;-90
2021/09/09 04:17:21;;;;;;;8.35;7.50;;;21.90;99.90;;;;;;5081452;28;20028;-90
2021/09/09 04:19:46;;;;;;;7.68;6.97;;;21.90;99.90;;;;;;5077026;28;20027;-91
2021/09/09 04:22:12;;;;;;;8.45;7.13;;;22.00;99.90;;;;;;5077696;28;20481;-90
2021/09/09 04:24:37;;;;;;;12.82;7.60;;;22.00;99.90;;;;;;5081244;28;20033;-90
2021/09/09 04:27:04;;;;;;;9.30;7.60;;;21.90;99.90;;;;;;5081285;28;20028;-90
2021/09/09 04:29:30;;;;;;;8.60;7.72;;;21.90;99.90;;;;;;5063142;28;20054;-90
2021/09/09 04:31:56;;;;;;;9.18;7.75;;;21.80;99.90;;;;;;5077496;28;20067;-90
2021/09/09 04:34:22;;;;;;;9.50;8.07;;;21.80;99.90;;;;;;5076883;28;20017;-90
2021/09/09 04:36:47;;;;;;;8.43;7.53;;;21.80;99.90;;;;;;5081094;28;20473;-90
2021/09/09 04:39:13;;;;;;;10.00;7.80;;;21.90;99.90;;;;;;5080758;28;20028;-90
2021/09/09 04:41:39;;;;;;;8.52;7.72;;;21.90;99.90;;;;;;5062099;28;20077;-90
2021/09/09 04:44:05;;;;;;;8.70;7.80;;;21.90;99.90;;;;;;5070643;28;20115;-90
2021/09/09 04:46:31;;;;;;;10.32;7.72;;;21.90;99.90;;;;;;5092536;28;20031;-90
2021/09/09 04:48:57;;;;;;;8.38;7.50;;;21.90;99.90;;;;;;5079979;28;20028;-90
2021/09/09 04:51:22;;;;;;;8.93;7.55;;;21.90;99.90;;;;;;5080741;28;20043;-90
2021/09/09 04:53:49;;;;;;;9.43;7.75;;;21.90;99.90;;;;;;5081148;28;20025;-90
2021/09/09 04:56:14;;;;;;;10.25;7.38;;;21.90;99.90;;;;;;5079538;28;20038;-90
2021/09/09 04:58:40;;;;;;;9.65;7.75;;;21.70;99.90;;;;;;5075820;28;20031;-90
2021/09/09 05:01:06;;;;;;;9.75;7.50;;;21.70;99.90;;;;;;5078284;28;20032;-90
2021/09/09 05:03:32;;;;;;;8.80;8.00;;;21.80;99.90;;;;;;5080564;28;20295;-89
2021/09/09 05:05:57;;;;;;;9.75;8.45;;;21.80;99.90;;;;;;5085274;28;20067;-90
2021/09/09 05:08:23;;;;;;;9.82;8.55;;;21.70;99.90;;;;;;5092334;28;20027;-90
2021/09/09 05:10:49;;;;;;;11.68;7.95;;;21.60;99.90;;;;;;5075444;28;20516;-90
2021/09/09 05:13:14;;;;;;;10.27;8.85;;;21.50;99.90;;;;;;5092487;28;20488;-90
2021/09/09 05:15:40;;;;;;;10.20;8.75;;;21.60;99.90;;;;;;5082086;28;20024;-90
2021/09/09 05:18:05;;;;;;;12.45;8.63;;;21.50;99.90;;;;;;5068326;28;20188;-89
2021/09/09 05:20:31;;;;;;;9.73;8.35;;;21.50;99.90;;;;;;5091668;28;20065;-91
2021/09/09 05:22:57;;;;;;;9.02;8.13;;;21.40;99.90;;;;;;5072620;28;20044;-89
2021/09/09 05:25:23;;;;;;;8.55;7.63;;;21.60;99.90;;;;;;5092131;28;20073;-90
2021/09/09 05:27:48;;;;;;;13.23;8.02;;;21.50;99.90;;;;;;5079442;28;20452;-90
2021/09/09 05:30:14;;;;;;;8.55;7.43;;;21.60;99.90;;;;;;5080474;28;20055;-89
2021/09/09 05:32:40;;;;;;;11.88;7.90;;;21.60;99.90;;;;;;5080979;28;20027;-90
2021/09/09 05:35:07;;;;;;;9.65;8.57;;;21.80;99.90;;;;;;5077933;28;20035;-90
2021/09/09 05:37:32;;;;;;;10.38;8.38;;;21.70;99.90;;;;;;5073901;28;20514;-90
2021/09/09 05:39:58;;;;;;;10.25;7.78;;;21.70;99.90;;;;;;5061118;28;20135;-90
2021/09/09 05:42:26;;;;;;;9.57;8.57;;;21.60;99.90;;;;;;5080287;28;20025;-90
2021/09/09 05:44:53;;;;;;;12.70;8.90;;;21.60;99.90;;;;;;5056796;28;20035;-90
2021/09/09 05:47:20;;;;;;;11.95;9.07;;;21.50;99.90;;;;;;5079644;28;20422;-90
2021/09/09 05:49:45;;;;;;;9.25;8.07;;;21.50;99.90;;;;;;5073377;28;20568;-90
2021/09/09 05:52:11;;;;;;;14.82;8.35;;;21.50;99.90;;;;;;5059583;28;20108;-90
2021/09/09 05:54:36;;;;;;;11.20;8.98;;;21.50;99.90;;;;;;5079675;28;20028;-89
2021/09/09 05:57:02;;;;;;;13.30;9.13;;;21.50;99.90;;;;;;5079796;28;20366;-90
2021/09/09 05:59:28;;;;;;;9.90;8.30;;;21.50;99.90;;;;;;5080772;28;20028;-90
2021/09/09 06:01:54;;;;;;;9.82;8.57;;;21.50;99.90;;;;;;5091446;28;20066;-90
2021/09/09 06:04:21;;;;;;;10.98;8.65;;;21.60;99.90;;;;;;5058350;28;20511;-90
2021/09/09 06:06:48;;;;;;;13.43;8.45;;;21.60;99.90;;;;;;5091410;28;20028;-90
2021/09/09 06:09:14;;;;;;;9.98;8.20;;;21.60;99.90;;;;;;5084149;28;20024;-90
2021/09/09 06:11:40;;;;;;;9.70;8.45;;;21.60;99.90;;;;;;5062182;28;20039;-90
2021/09/09 06:14:06;;;;;;;9.32;7.45;;;21.60;99.90;;;;;;5077439;28;20020;-90
2021/09/09 06:16:32;;;;;;;10.13;8.27;;;21.60;99.90;;;;;;5074875;28;20036;-90
2021/09/09 06:18:58;;;;;;;11.00;8.05;;;21.70;99.90;;;;;;5060990;28;20028;-90
2021/09/09 06:21:24;;;;;;;13.43;8.88;;;21.70;99.90;;;;;;5081248;28;20033;-90
2021/09/09 06:23:49;;;;;;;10.90;8.60;;;21.70;99.90;;;;;;5087340;28;20035;-89
2021/09/09 06:26:16;;;;;;;10.55;8.25;;;21.70;99.90;;;;;;5095132;28;20041;-90
2021/09/09 06:28:42;;;;;;;11.40;8.15;;;21.80;99.90;;;;;;5095473;28;20520;-90
2021/09/09 06:31:07;;;;;;;12.55;8.85;;;21.80;99.90;;;;;;5080764;28;20025;-90
2021/09/09 06:33:33;;;;;;;10.27;8.10;;;21.90;99.90;;;;;;5083479;28;20033;-90
2021/09/09 06:35:59;;;;;;;10.85;8.45;;;21.90;99.90;;;;;;5083051;28;20024;-90
2021/09/09 06:38:25;;;;;;;12.05;8.18;;;21.90;99.90;;;;;;5083445;28;20044;-90
2021/09/09 06:40:51;;;;;;;11.73;8.95;;;22.00;99.90;;;;;;5076494;28;20016;-89
2021/09/09 06:43:16;;;;;;;11.38;9.70;;;22.00;99.90;;;;;;5079524;28;20078;-90
2021/09/09 06:45:42;;;;;;;11.93;9.25;;;22.10;99.90;;;;;;5059159;28;20025;-90
2021/09/09 06:48:08;;;;;;;9.95;8.73;;;22.20;99.90;;;;;;5071738;28;20032;-90
2021/09/09 06:50:34;;;;;;;11.00;9.10;;;22.30;99.90;;;;;;5095261;28;20119;-90
2021/09/09 06:53:00;;;;;;;10.65;8.52;;;22.30;99.90;;;;;;5094713;28;20095;-89
2021/09/09 06:55:25;;;;;;;11.95;8.38;;;22.30;99.90;;;;;;5094688;28;20024;-90
2021/09/09 06:57:52;;;;;;;10.95;8.85;;;22.40;99.90;;;;;;5077707;28;20016;-90
2021/09/09 07:00:18;;;;;;;11.90;9.60;;;22.40;99.90;;;;;;5086545;28;20031;-90
2021/09/09 07:02:43;;;;;;;12.27;10.00;;;22.30;99.90;;;;;;5085974;28;20949;-90
2021/09/09 07:05:10;;;;;;;12.98;10.80;;;22.30;99.90;;;;;;5076423;28;20081;-90
2021/09/09 07:07:37;;;;;;;15.27;11.05;;;22.30;99.90;;;;;;5078116;28;20451;-90
2021/09/09 07:10:02;;;;;;;12.48;11.18;;;22.00;99.90;;;;;;5081284;28;20024;-89
2021/09/09 07:12:28;;;;;;;15.00;11.30;;;22.00;99.90;;;;;;5073316;28;20035;-90
2021/09/09 07:14:54;;;;;;;14.68;11.27;;;22.00;99.90;;;;;;5089868;28;20536;-90
2021/09/09 07:17:19;;;;;;;13.85;11.55;;;22.00;99.90;;;;;;5064286;28;20020;-90
2021/09/09 07:19:45;;;;;;;14.55;11.95;;;22.00;99.90;;;;;;5077818;28;20032;-90
2021/09/09 07:22:10;;;;;;;12.07;10.88;;;21.90;99.90;;;;;;5061544;28;20036;-90
2021/09/09 07:24:36;;;;;;;19.35;11.75;;;22.10;99.90;;;;;;5082422;28;20586;-90
2021/09/09 07:27:01;;;;;;;13.52;12.10;;;22.10;99.90;;;;;;5082967;28;20119;-90
2021/09/09 07:29:27;;;;;;;15.30;11.30;;;22.10;99.90;;;;;;5059151;28;20024;-89
2021/09/09 07:31:53;;;;;;;14.90;11.77;;;22.30;99.90;;;;;;5075611;28;20069;-90
2021/09/09 07:34:18;;;;;;;17.55;12.68;;;22.10;99.90;;;;;;5095038;28;20099;-90
2021/09/09 07:36:44;;;;;;;13.07;11.68;;;22.10;99.90;;;;;;5093807;28;20032;-90
2021/09/09 07:39:10;;;;;;;13.77;11.68;;;22.20;99.90;;;;;;5087571;28;20024;-90
2021/09/09 07:41:36;;;;;;;16.50;12.30;;;22.40;99.90;;;;;;5064591;28;20028;-90
2021/09/09 07:44:02;;;;;;;13.55;11.90;;;22.50;99.90;;;;;;5060983;28;20067;-90
2021/09/09 07:46:30;;;;;;;12.40;10.93;;;22.50;99.90;;;;;;5093919;28;20111;-90
2021/09/09 07:48:55;;;;;;;14.70;11.32;;;22.60;99.90;;;;;;5075824;28;20158;-90
2021/09/09 07:51:22;;;;;;;15.02;10.00;;;22.60;99.90;;;;;;5085527;28;20572;-90
2021/09/09 07:53:49;;;;;;;15.55;9.75;;;22.50;99.90;;;;;;5063757;28;20532;-90
2021/09/09 07:56:15;;;;;;;13.30;9.52;;;22.50;99.90;;;;;;5062566;28;20044;-90
2021/09/09 07:58:40;;;;;;;12.40;10.20;;;22.70;99.90;;;;;;5093251;28;20059;-90
2021/09/09 08:01:06;;;;;;;14.15;9.98;;;22.60;99.90;;;;;;5079633;28;20090;-90
2021/09/09 08:03:31;;;;;;;18.67;9.70;;;22.60;99.90;;;;;;5081853;28;20055;-90
2021/09/09 08:05:57;;;;;;;19.42;11.57;;;22.70;99.90;;;;;;5081654;28;20027;-90
2021/09/09 08:08:23;;;;;;;18.35;12.35;;;22.70;99.90;;;;;;5081751;28;20039;-89
2021/09/09 08:10:49;;;;;;;15.88;12.23;;;22.60;99.90;;;;;;5058515;28;20024;-90
2021/09/09 08:13:14;;;;;;;22.45;14.35;;;22.60;99.90;;;;;;5059962;28;20073;-90
2021/09/09 08:15:40;;;;;;;19.58;14.05;;;22.50;99.90;;;;;;5082207;28;20055;-90
2021/09/09 08:18:06;;;;;;;24.60;17.02;;;22.50;99.90;;;;;;5081331;28;20493;-90
2021/09/09 08:20:32;;;;;;;29.60;20.05;;;22.50;99.90;;;;;;5082857;28;20016;-90
2021/09/09 08:22:57;;;;;;;28.15;18.80;;;22.40;99.90;;;;;;5093379;28;20636;-90
2021/09/09 08:25:23;;;;;;;22.92;15.63;;;22.40;99.90;;;;;;5058927;28;20032;-90
2021/09/09 08:27:49;;;;;;;17.60;13.82;;;22.30;99.90;;;;;;5063080;28;20115;-90
2021/09/09 08:30:15;;;;;;;17.60;13.68;;;22.30;99.90;;;;;;5081105;28;20025;-90
2021/09/09 08:32:41;;;;;;;13.60;11.20;;;22.40;99.90;;;;;;5081164;28;20170;-89
2021/09/09 08:35:08;;;;;;;13.35;11.05;;;22.30;99.90;;;;;;5060827;28;20491;-89
2021/09/09 08:37:34;;;;;;;12.00;10.50;;;22.30;99.90;;;;;;5074309;28;20056;-90
2021/09/09 08:40:00;;;;;;;11.95;10.68;;;22.50;99.90;;;;;;5079826;28;20121;-90
2021/09/09 08:42:26;;;;;;;12.60;10.75;;;22.50;99.90;;;;;;5080615;28;20025;-90
2021/09/09 08:44:52;;;;;;;11.73;10.40;;;22.70;99.90;;;;;;5083932;28;20035;-90
2021/09/09 08:47:18;;;;;;;10.85;9.60;;;22.70;99.90;;;;;;5092995;28;20381;-90
2021/09/09 08:49:44;;;;;;;14.05;10.38;;;22.60;99.90;;;;;;5092393;28;20089;-90
2021/09/09 08:52:11;;;;;;;12.70;10.80;;;22.80;99.90;;;;;;5078534;28;20486;-90
2021/09/09 08:54:37;;;;;;;12.25;10.80;;;22.90;99.90;;;;;;5080732;28;20044;-90
2021/09/09 08:57:04;;;;;;;12.65;11.10;;;23.00;99.90;;;;;;5080986;28;20063;-90
2021/09/09 08:59:29;;;;;;;14.05;11.18;;;22.90;99.90;;;;;;5063063;28;20028;-89
2021/09/09 09:02:08;;;;;;;12.07;10.88;;;22.80;99.90;;;;;;5058600;28;20077;-90
2021/09/09 09:04:35;;;;;;;12.85;10.95;;;22.80;99.90;;;;;;5057674;28;20064;-90
2021/09/09 09:07:02;;;;;;;12.65;11.27;;;23.10;99.90;;;;;;5074493;28;20545;-89
2021/09/09 09:09:34;;;;;;;14.38;11.30;;;23.40;99.90;;;;;;5083881;28;20397;-90
2021/09/09 09:12:04;;;;;;;11.98;10.85;;;23.40;99.90;;;;;;5079856;28;20017;-90
2021/09/09 09:14:30;;;;;;;12.82;10.77;;;23.70;99.90;;;;;;5080959;28;20020;-90
2021/09/09 09:16:58;;;;;;;13.63;11.13;;;23.80;99.90;;;;;;5076566;28;20048;-90
2021/09/09 09:19:37;;;;;;;10.85;9.48;;;23.70;99.90;;;;;;5058651;28;20025;-90
2021/09/09 09:22:09;;;;;;;13.68;9.70;;;23.70;99.90;;;;;;5076761;28;20016;-90
2021/09/09 09:24:49;;;;;;;10.35;9.35;;;23.70;99.90;;;;;;5089544;28;20051;-91
2021/09/09 09:27:18;;;;;;;9.85;8.93;;;23.90;99.90;;;;;;5091866;28;20051;-90
2021/09/09 09:30:09;;;;;;;10.00;8.88;;;24.00;99.90;;;;;;5092336;28;20032;-90
2021/09/09 09:32:35;;;;;;;9.27;8.30;;;24.20;99.90;;;;;;5090658;28;20034;-90
2021/09/09 09:35:16;;;;;;;9.80;8.88;;;24.50;99.90;;;;;;5077279;28;20020;-90
2021/09/09 09:37:54;;;;;;;9.57;8.50;;;24.70;99.90;;;;;;5076049;28;20032;-90
2021/09/09 09:40:29;;;;;;;9.70;8.70;;;24.90;99.90;;;;;;5088333;28;20082;-90
2021/09/09 09:42:59;;;;;;;9.50;8.52;;;25.10;99.90;;;;;;5073558;28;20024;-90
2021/09/09 09:45:25;;;;;;;9.80;8.80;;;25.50;99.90;;;;;;5091787;28;20484;-90
2021/09/09 09:47:51;;;;;;;10.13;8.63;;;25.80;99.90;;;;;;5071183;28;20020;-91
2021/09/09 09:50:23;;;;;;;10.82;8.93;;;26.00;99.90;;;;;;5091454;28;20059;-90
2021/09/09 09:53:09;;;;;;;14.23;9.55;;;26.20;99.90;;;;;;5075998;28;20515;-90
2021/09/09 09:55:41;;;;;;;9.13;8.23;;;26.60;99.90;;;;;;5091148;28;20024;-90
2021/09/09 09:58:07;;;;;;;9.50;8.60;;;26.60;99.90;;;;;;5080967;28;20047;-90
2021/09/09 10:00:33;;;;;;;9.38;8.52;;;26.40;99.90;;;;;;5083927;28;20036;-90
2021/09/09 10:02:58;;;;;;;10.48;9.00;;;26.50;99.90;;;;;;5065653;28;20041;-91
2021/09/09 10:05:25;;;;;;;11.52;8.98;;;27.50;99.90;;;;;;5084087;28;20028;-90
2021/09/09 10:07:51;;;;;;;8.93;8.13;;;30.50;99.90;;;;;;5079395;28;20043;-91
2021/09/09 10:10:16;;;;;;;9.68;8.77;;;31.20;93.70;;;;;;5096249;28;20012;-90
2021/09/09 10:12:44;;;;;;;9.52;8.57;;;29.30;95.90;;;;;;5077130;28;20427;-90
2021/09/09 10:15:12;;;;;;;9.73;8.70;;;28.00;98.50;;;;;;5088920;28;20458;-91
2021/09/09 10:17:39;;;;;;;10.15;9.20;;;27.20;99.70;;;;;;5083858;28;20496;-90
2021/09/09 10:20:30;;;;;;;10.80;8.57;;;26.60;99.90;;;;;;5080943;28;20111;-90
2021/09/09 10:23:01;;;;;;;10.77;9.68;;;25.80;99.90;;;;;;5079727;28;20131;-91
2021/09/09 10:25:42;;;;;;;9.93;8.93;;;25.30;99.90;;;;;;5096092;28;20082;-89
2021/09/09 10:28:48;;;;;;;10.73;8.70;;;24.90;99.90;;;;;;5095857;28;20023;-91
2021/09/09 10:31:19;;;;;;;9.73;8.82;;;25.00;99.90;;;;;;5079927;28;20044;-91
2021/09/09 10:33:52;;;;;;;9.82;8.02;;;25.30;99.90;;;;;;5095032;28;20036;-90
2021/09/09 10:36:41;;;;;;;9.18;8.27;;;25.00;99.90;;;;;;5087482;28;20029;-90
2021/09/09 10:39:08;;;;;;;9.32;8.32;;;25.10;99.90;;;;;;5083697;28;20519;-90
2021/09/09 10:41:34;;;;;;;9.77;8.27;;;25.10;99.90;;;;;;5064969;28;20516;-90
2021/09/09 10:44:02;;;;;;;8.68;7.85;;;24.90;99.90;;;;;;5079856;28;20444;-90
2021/09/09 10:46:37;;;;;;;8.45;7.68;;;24.80;99.90;;;;;;5061058;28;20020;-90
2021/09/09 10:49:08;;;;;;;8.55;6.97;;;24.70;99.90;;;;;;5080031;28;20405;-90
2021/09/09 10:51:35;;;;;;;8.68;7.82;;;24.50;99.90;;;;;;5083158;28;20029;-91
2021/09/09 10:54:01;;;;;;;9.65;8.18;;;24.40;99.90;;;;;;5088221;28;20023;-90
2021/09/09 10:56:28;;;;;;;8.85;7.53;;;24.20;99.90;;;;;;5094209;28;20164;-90
2021/09/09 10:59:14;;;;;;;9.70;7.85;;;24.00;99.90;;;;;;5079171;28;20036;-90
2021/09/09 11:01:45;;;;;;;9.40;7.93;;;24.00;99.90;;;;;;5060311;28;20032;-90
2021/09/09 11:04:34;;;;;;;8.27;7.35;;;24.00;99.90;;;;;;5095010;28;20381;-90
2021/09/09 11:07:01;;;;;;;10.40;7.05;;;23.80;99.90;;;;;;5093550;28;20032;-90
2021/09/09 11:09:27;;;;;;;10.32;8.20;;;23.60;99.90;;;;;;5085555;28;20043;-91
2021/09/09 11:12:04;;;;;;;9.52;7.40;;;23.60;99.90;;;;;;5069229;28;20023;-90
2021/09/09 11:14:31;;;;;;;8.32;7.25;;;23.60;99.90;;;;;;5093795;28;20024;-90
2021/09/09 11:16:58;;;;;;;9.45;7.93;;;23.70;99.90;;;;;;5078958;28;20032;-90
2021/09/09 11:19:25;;;;;;;10.85;7.65;;;23.50;99.90;;;;;;5095151;28;20035;-90
2021/09/09 11:21:52;;;;;;;9.27;7.47;;;23.60;99.90;;;;;;5081974;28;20489;-91
2021/09/09 11:24:19;;;;;;;8.77;7.90;;;23.50;99.90;;;;;;5082059;28;20052;-89
2021/09/09 11:26:47;;;;;;;7.68;6.97;;;23.40;99.90;;;;;;5082572;28;20028;-90
2021/09/09 11:29:16;;;;;;;10.02;7.43;;;23.70;99.90;;;;;;5062025;28;20028;-90
2021/09/09 11:31:53;;;;;;;8.15;7.35;;;23.60;99.90;;;;;;5077908;28;20041;-90
2021/09/09 11:34:36;;;;;;;9.38;7.63;;;23.40;99.90;;;;;;5090267;28;20035;-90
2021/09/09 11:37:04;;;;;;;9.63;8.30;;;23.30;99.90;;;;;;5062677;28;20040;-90
2021/09/09 11:39:35;;;;;;;8.25;7.45;;;23.30;99.90;;;;;;5082516;28;20020;-90
2021/09/09 11:42:04;;;;;;;8.55;7.75;;;23.60;99.90;;;;;;5082018;28;20069;-90
2021/09/09 11:44:32;;;;;;;8.18;7.43;;;23.50;99.90;;;;;;5082891;28;20488;-90
2021/09/09 11:47:00;;;;;;;10.60;7.60;;;23.50;99.90;;;;;;5093757;28;20024;-90
2021/09/09 11:49:27;;;;;;;8.43;7.63;;;23.60;99.90;;;;;;5078156;28;20020;-91
2021/09/09 11:51:58;;;;;;;9.70;7.00;;;23.60;99.90;;;;;;5093653;28;20032;-90
2021/09/09 11:54:34;;;;;;;7.97;7.18;;;23.80;99.90;;;;;;5085398;28;20119;-90
2021/09/09 11:57:04;;;;;;;9.80;8.30;;;23.60;99.90;;;;;;5082006;28;20057;-90
2021/09/09 11:59:32;;;;;;;7.95;7.25;;;23.60;99.90;;;;;;5082201;28;20119;-90
2021/09/09 12:02:05;;;;;;;10.57;8.05;;;23.70;99.90;;;;;;5060255;28;20032;-90
2021/09/09 12:04:33;;;;;;;8.38;7.57;;;23.80;99.90;;;;;;5076715;28;20033;-91
2021/09/09 12:06:59;;;;;;;8.32;7.47;;;23.40;99.90;;;;;;5080850;28;20035;-90
2021/09/09 12:09:26;;;;;;;7.97;7.28;;;23.60;99.90;;;;;;5071940;28;20024;-90
2021/09/09 12:12:00;;;;;;;7.80;7.10;;;23.80;99.90;;;;;;5089584;28;20507;-90
2021/09/09 12:14:26;;;;;;;8.65;7.75;;;23.40;99.90;;;;;;5063723;28;20027;-90
2021/09/09 12:17:11;;;;;;;8.80;8.00;;;23.40;99.90;;;;;;5075299;28;20024;-90
2021/09/09 12:20:11;;;;;;;11.32;8.00;;;23.50;99.90;;;;;;5090087;28;20028;-90
2021/09/09 12:22:50;;;;;;;9.63;8.20;;;23.30;99.90;;;;;;4991586;28;20069;-90
2021/09/09 12:25:28;;;;;;;9.60;8.68;;;23.30;99.90;;;;;;4979814;28;20049;-91
2021/09/09 12:28:03;;;;;;;10.73;9.73;;;23.40;99.90;;;;;;5009706;28;20068;-90
2021/09/09 12:30:38;;;;;;;11.02;10.02;;;23.50;99.90;;;;;;5010656;28;20538;-90
2021/09/09 12:33:24;;;;;;;12.13;10.93;;;23.60;99.90;;;;;;4993400;28;20530;-90
2021/09/09 12:36:07;;;;;;;13.48;10.00;;;23.30;99.90;;;;;;5007555;28;20114;-90
2021/09/09 12:38:34;;;;;;;11.20;10.10;;;23.40;99.90;;;;;;5000060;28;20541;-90
2021/09/09 12:41:00;;;;;;;11.57;10.38;;;23.60;99.90;;;;;;5010215;28;20541;-90
2021/09/09 12:43:31;;;;;;;11.80;10.70;;;23.60;99.90;;;;;;4994471;28;20059;-90